sensor_id;sensor_type;location;lat;lon;timestamp;temperature;humidity
84335;DHT22;74512;51.190;3.198;2023-12-20T00:00:59;11.30;1.00
84335;DHT22;74512;51.190;3.198;2023-12-20T00:03:24;11.20;1.00
84335;DHT22;74512;51.190;3.198;2023-12-20T00:05:50;11.00;1.00
84335;DHT22;74512;51.190;3.198;2023-12-20T00:08:16;11.10;1.00
84335;DHT22;74512;51.190;3.198;2023-12-20T00:10:43;10.90;1.00
84335;DHT22;74512;51.190;3.198;2023-12-20T00:13:09;11.00;1.00
84335;DHT22;74512;51.190;3.198;2023-12-20T00:15:35;11.00;1.00
84335;DHT22;74512;51.190;3.198;2023-12-20T00:18:01;11.00;1.00
84335;DHT22;74512;51.190;3.198;2023-12-20T00:20:27;10.90;1.00
84335;DHT22;74512;51.190;3.198;2023-12-20T00:22:57;10.90;1.00
84335;DHT22;74512;51.190;3.198;2023-12-20T00:25:24;10.80;1.00
84335;DHT22;74512;51.190;3.198;2023-12-20T00:27:49;10.80;1.00
84335;DHT22;74512;51.190;3.198;2023-12-20T00:30:15;10.80;1.00
84335;DHT22;74512;51.190;3.198;2023-12-20T00:32:41;10.90;1.00
84335;DHT22;74512;51.190;3.198;2023-12-20T00:35:15;10.80;1.00
84335;DHT22;74512;51.190;3.198;2023-12-20T00:37:41;10.90;1.00
84335;DHT22;74512;51.190;3.198;2023-12-20T00:40:07;10.80;1.00
84335;DHT22;74512;51.190;3.198;2023-12-20T00:42:33;10.90;1.00
84335;DHT22;74512;51.190;3.198;2023-12-20T00:44:59;10.80;1.00
84335;DHT22;74512;51.190;3.198;2023-12-20T00:47:25;10.80;1.00
84335;DHT22;74512;51.190;3.198;2023-12-20T00:49:51;10.70;1.00
84335;DHT22;74512;51.190;3.198;2023-12-20T00:52:17;10.70;1.00
84335;DHT22;74512;51.190;3.198;2023-12-20T00:54:43;10.70;1.00
84335;DHT22;74512;51.190;3.198;2023-12-20T00:57:09;10.70;1.00
84335;DHT22;74512;51.190;3.198;2023-12-20T00:59:35;10.70;1.00
84335;DHT22;74512;51.190;3.198;2023-12-20T01:02:01;10.70;1.00
84335;DHT22;74512;51.190;3.198;2023-12-20T01:04:26;10.70;1.00
84335;DHT22;74512;51.190;3.198;2023-12-20T01:06:52;10.70;1.00
84335;DHT22;74512;51.190;3.198;2023-12-20T01:09:18;10.60;1.00
84335;DHT22;74512;51.190;3.198;2023-12-20T01:11:44;10.60;1.00
84335;DHT22;74512;51.190;3.198;2023-12-20T01:14:12;10.60;1.00
84335;DHT22;74512;51.190;3.198;2023-12-20T01:16:38;10.60;1.00
84335;DHT22;74512;51.190;3.198;2023-12-20T01:19:03;10.60;1.00
84335;DHT22;74512;51.190;3.198;2023-12-20T01:21:29;10.70;1.00
84335;DHT22;74512;51.190;3.198;2023-12-20T01:23:54;10.50;1.00
84335;DHT22;74512;51.190;3.198;2023-12-20T01:26:20;10.50;1.00
84335;DHT22;74512;51.190;3.198;2023-12-20T01:28:46;10.50;1.00
84335;DHT22;74512;51.190;3.198;2023-12-20T01:31:11;10.60;1.00
84335;DHT22;74512;51.190;3.198;2023-12-20T01:33:37;10.60;1.00
84335;DHT22;74512;51.190;3.198;2023-12-20T01:36:03;10.60;1.00
84335;DHT22;74512;51.190;3.198;2023-12-20T01:38:29;10.50;1.00
84335;DHT22;74512;51.190;3.198;2023-12-20T01:40:55;10.60;1.00
84335;DHT22;74512;51.190;3.198;2023-12-20T01:43:20;10.50;1.00
84335;DHT22;74512;51.190;3.198;2023-12-20T01:45:47;10.50;1.00
84335;DHT22;74512;51.190;3.198;2023-12-20T01:48:13;10.50;1.00
84335;DHT22;74512;51.190;3.198;2023-12-20T01:50:40;10.50;1.00
84335;DHT22;74512;51.190;3.198;2023-12-20T01:53:07;10.50;1.00
84335;DHT22;74512;51.190;3.198;2023-12-20T01:55:35;10.60;1.00
84335;DHT22;74512;51.190;3.198;2023-12-20T01:58:01;10.40;1.00
84335;DHT22;74512;51.190;3.198;2023-12-20T02:00:28;10.30;1.00
84335;DHT22;74512;51.190;3.198;2023-12-20T02:02:55;10.40;1.00
84335;DHT22;74512;51.190;3.198;2023-12-20T02:05:21;10.40;1.00
84335;DHT22;74512;51.190;3.198;2023-12-20T02:07:47;10.40;1.00
84335;DHT22;74512;51.190;3.198;2023-12-20T02:10:13;10.20;1.00
84335;DHT22;74512;51.190;3.198;2023-12-20T02:12:39;10.30;1.00
84335;DHT22;74512;51.190;3.198;2023-12-20T02:15:05;10.30;1.00
84335;DHT22;74512;51.190;3.198;2023-12-20T02:17:32;10.30;1.00
84335;DHT22;74512;51.190;3.198;2023-12-20T02:19:59;10.30;1.00
84335;DHT22;74512;51.190;3.198;2023-12-20T02:22:24;10.40;1.00
84335;DHT22;74512;51.190;3.198;2023-12-20T02:24:50;10.30;1.00
84335;DHT22;74512;51.190;3.198;2023-12-20T02:27:18;10.30;1.00
84335;DHT22;74512;51.190;3.198;2023-12-20T02:29:47;10.30;1.00
84335;DHT22;74512;51.190;3.198;2023-12-20T02:32:13;10.30;1.00
84335;DHT22;74512;51.190;3.198;2023-12-20T02:34:39;10.20;1.00
84335;DHT22;74512;51.190;3.198;2023-12-20T02:37:04;10.20;1.00
84335;DHT22;74512;51.190;3.198;2023-12-20T02:39:30;10.20;1.00
84335;DHT22;74512;51.190;3.198;2023-12-20T02:41:56;10.20;1.00
84335;DHT22;74512;51.190;3.198;2023-12-20T02:44:21;10.20;1.00
84335;DHT22;74512;51.190;3.198;2023-12-20T02:46:47;10.30;1.00
84335;DHT22;74512;51.190;3.198;2023-12-20T02:49:13;10.10;1.00
84335;DHT22;74512;51.190;3.198;2023-12-20T02:51:38;10.10;1.00
84335;DHT22;74512;51.190;3.198;2023-12-20T02:54:04;10.10;1.00
84335;DHT22;74512;51.190;3.198;2023-12-20T02:56:31;10.20;1.00
84335;DHT22;74512;51.190;3.198;2023-12-20T02:58:57;10.20;1.00
84335;DHT22;74512;51.190;3.198;2023-12-20T03:01:23;10.20;1.00
84335;DHT22;74512;51.190;3.198;2023-12-20T03:03:48;10.30;1.00
84335;DHT22;74512;51.190;3.198;2023-12-20T03:06:18;10.30;1.00
84335;DHT22;74512;51.190;3.198;2023-12-20T03:08:44;10.20;1.00
84335;DHT22;74512;51.190;3.198;2023-12-20T03:11:10;10.30;1.00
84335;DHT22;74512;51.190;3.198;2023-12-20T03:13:35;10.20;1.00
84335;DHT22;74512;51.190;3.198;2023-12-20T03:16:01;10.30;1.00
84335;DHT22;74512;51.190;3.198;2023-12-20T03:18:27;10.30;1.00
84335;DHT22;74512;51.190;3.198;2023-12-20T03:20:54;10.30;1.00
84335;DHT22;74512;51.190;3.198;2023-12-20T03:23:19;10.30;1.00
84335;DHT22;74512;51.190;3.198;2023-12-20T03:25:45;10.30;1.00
84335;DHT22;74512;51.190;3.198;2023-12-20T03:28:10;10.30;1.00
84335;DHT22;74512;51.190;3.198;2023-12-20T03:30:36;10.10;1.00
84335;DHT22;74512;51.190;3.198;2023-12-20T03:33:02;10.10;1.00
84335;DHT22;74512;51.190;3.198;2023-12-20T03:35:27;10.20;1.00
84335;DHT22;74512;51.190;3.198;2023-12-20T03:37:53;10.10;1.00
84335;DHT22;74512;51.190;3.198;2023-12-20T03:40:18;10.20;1.00
84335;DHT22;74512;51.190;3.198;2023-12-20T03:42:44;10.10;1.00
84335;DHT22;74512;51.190;3.198;2023-12-20T03:45:10;10.10;1.00
84335;DHT22;74512;51.190;3.198;2023-12-20T03:47:35;10.10;1.00
84335;DHT22;74512;51.190;3.198;2023-12-20T03:50:01;10.10;1.00
84335;DHT22;74512;51.190;3.198;2023-12-20T03:52:27;10.00;1.00
84335;DHT22;74512;51.190;3.198;2023-12-20T03:54:53;10.00;1.00
84335;DHT22;74512;51.190;3.198;2023-12-20T03:57:19;10.00;1.00
84335;DHT22;74512;51.190;3.198;2023-12-20T03:59:44;10.10;1.00
84335;DHT22;74512;51.190;3.198;2023-12-20T04:02:10;10.20;1.00
84335;DHT22;74512;51.190;3.198;2023-12-20T04:04:36;9.90;1.00
84335;DHT22;74512;51.190;3.198;2023-12-20T04:07:01;10.10;1.00
84335;DHT22;74512;51.190;3.198;2023-12-20T04:09:27;9.90;1.00
84335;DHT22;74512;51.190;3.198;2023-12-20T04:11:52;9.90;1.00
84335;DHT22;74512;51.190;3.198;2023-12-20T04:14:18;9.90;1.00
84335;DHT22;74512;51.190;3.198;2023-12-20T04:16:44;10.00;1.00
84335;DHT22;74512;51.190;3.198;2023-12-20T04:19:09;10.00;1.00
84335;DHT22;74512;51.190;3.198;2023-12-20T04:21:35;10.00;1.00
84335;DHT22;74512;51.190;3.198;2023-12-20T04:24:00;10.00;1.00
84335;DHT22;74512;51.190;3.198;2023-12-20T04:26:26;9.90;1.00
84335;DHT22;74512;51.190;3.198;2023-12-20T04:28:52;9.90;1.00
84335;DHT22;74512;51.190;3.198;2023-12-20T04:31:17;10.00;1.00
84335;DHT22;74512;51.190;3.198;2023-12-20T04:33:43;9.90;1.00
84335;DHT22;74512;51.190;3.198;2023-12-20T04:36:09;9.90;1.00
84335;DHT22;74512;51.190;3.198;2023-12-20T04:38:34;10.00;1.00
84335;DHT22;74512;51.190;3.198;2023-12-20T04:41:00;9.90;1.00
84335;DHT22;74512;51.190;3.198;2023-12-20T04:43:26;9.80;1.00
84335;DHT22;74512;51.190;3.198;2023-12-20T04:45:51;9.70;1.00
84335;DHT22;74512;51.190;3.198;2023-12-20T04:48:17;9.70;1.00
84335;DHT22;74512;51.190;3.198;2023-12-20T04:50:42;9.80;1.00
84335;DHT22;74512;51.190;3.198;2023-12-20T04:53:08;9.80;1.00
84335;DHT22;74512;51.190;3.198;2023-12-20T04:55:34;9.80;1.00
84335;DHT22;74512;51.190;3.198;2023-12-20T04:57:59;9.90;1.00
84335;DHT22;74512;51.190;3.198;2023-12-20T05:00:25;9.90;1.00
84335;DHT22;74512;51.190;3.198;2023-12-20T05:02:50;9.90;1.00
84335;DHT22;74512;51.190;3.198;2023-12-20T05:05:16;9.90;1.00
84335;DHT22;74512;51.190;3.198;2023-12-20T05:07:43;10.10;1.00
84335;DHT22;74512;51.190;3.198;2023-12-20T05:10:09;10.20;1.00
84335;DHT22;74512;51.190;3.198;2023-12-20T05:12:35;10.20;1.00
84335;DHT22;74512;51.190;3.198;2023-12-20T05:15:00;10.40;1.00
84335;DHT22;74512;51.190;3.198;2023-12-20T05:17:26;10.40;1.00
84335;DHT22;74512;51.190;3.198;2023-12-20T05:19:52;10.40;1.00
84335;DHT22;74512;51.190;3.198;2023-12-20T05:22:19;10.60;1.00
84335;DHT22;74512;51.190;3.198;2023-12-20T05:24:45;10.70;1.00
84335;DHT22;74512;51.190;3.198;2023-12-20T05:27:10;10.80;1.00
84335;DHT22;74512;51.190;3.198;2023-12-20T05:29:36;10.80;1.00
84335;DHT22;74512;51.190;3.198;2023-12-20T05:32:02;10.80;1.00
84335;DHT22;74512;51.190;3.198;2023-12-20T05:34:30;10.80;1.00
84335;DHT22;74512;51.190;3.198;2023-12-20T05:36:55;10.70;1.00
84335;DHT22;74512;51.190;3.198;2023-12-20T05:39:21;10.80;1.00
84335;DHT22;74512;51.190;3.198;2023-12-20T05:41:47;10.80;1.00
84335;DHT22;74512;51.190;3.198;2023-12-20T05:44:13;10.70;1.00
84335;DHT22;74512;51.190;3.198;2023-12-20T05:46:39;10.70;1.00
84335;DHT22;74512;51.190;3.198;2023-12-20T05:49:05;10.80;1.00
84335;DHT22;74512;51.190;3.198;2023-12-20T05:51:31;10.90;1.00
84335;DHT22;74512;51.190;3.198;2023-12-20T05:53:57;10.80;1.00
84335;DHT22;74512;51.190;3.198;2023-12-20T05:56:23;10.80;1.00
84335;DHT22;74512;51.190;3.198;2023-12-20T05:58:49;10.80;1.00
84335;DHT22;74512;51.190;3.198;2023-12-20T06:01:15;10.70;1.00
84335;DHT22;74512;51.190;3.198;2023-12-20T06:03:42;10.60;1.00
84335;DHT22;74512;51.190;3.198;2023-12-20T06:06:08;10.60;1.00
84335;DHT22;74512;51.190;3.198;2023-12-20T06:08:34;10.60;1.00
84335;DHT22;74512;51.190;3.198;2023-12-20T06:11:00;10.70;1.00
84335;DHT22;74512;51.190;3.198;2023-12-20T06:13:26;10.60;1.00
84335;DHT22;74512;51.190;3.198;2023-12-20T06:15:53;10.40;1.00
84335;DHT22;74512;51.190;3.198;2023-12-20T06:18:19;10.60;1.00
84335;DHT22;74512;51.190;3.198;2023-12-20T06:20:45;10.50;1.00
84335;DHT22;74512;51.190;3.198;2023-12-20T06:23:10;10.60;1.00
84335;DHT22;74512;51.190;3.198;2023-12-20T06:25:36;10.60;1.00
84335;DHT22;74512;51.190;3.198;2023-12-20T06:28:02;10.60;1.00
84335;DHT22;74512;51.190;3.198;2023-12-20T06:30:27;10.40;1.00
84335;DHT22;74512;51.190;3.198;2023-12-20T06:32:54;10.40;1.00
84335;DHT22;74512;51.190;3.198;2023-12-20T06:35:20;10.30;1.00
84335;DHT22;74512;51.190;3.198;2023-12-20T06:37:46;10.30;1.00
84335;DHT22;74512;51.190;3.198;2023-12-20T06:40:12;10.30;1.00
84335;DHT22;74512;51.190;3.198;2023-12-20T06:42:37;10.10;1.00
84335;DHT22;74512;51.190;3.198;2023-12-20T06:45:03;10.10;1.00
84335;DHT22;74512;51.190;3.198;2023-12-20T06:47:29;10.20;1.00
84335;DHT22;74512;51.190;3.198;2023-12-20T06:49:55;10.30;1.00
84335;DHT22;74512;51.190;3.198;2023-12-20T06:52:21;10.30;1.00
84335;DHT22;74512;51.190;3.198;2023-12-20T06:54:47;10.10;1.00
84335;DHT22;74512;51.190;3.198;2023-12-20T06:57:13;10.40;1.00
84335;DHT22;74512;51.190;3.198;2023-12-20T06:59:42;10.40;1.00
84335;DHT22;74512;51.190;3.198;2023-12-20T07:02:08;10.30;1.00
84335;DHT22;74512;51.190;3.198;2023-12-20T07:04:35;10.30;1.00
84335;DHT22;74512;51.190;3.198;2023-12-20T07:07:04;10.40;1.00
84335;DHT22;74512;51.190;3.198;2023-12-20T07:09:29;10.40;1.00
84335;DHT22;74512;51.190;3.198;2023-12-20T07:11:55;10.50;1.00
84335;DHT22;74512;51.190;3.198;2023-12-20T07:14:21;10.50;1.00
84335;DHT22;74512;51.190;3.198;2023-12-20T07:16:47;10.60;1.00
84335;DHT22;74512;51.190;3.198;2023-12-20T07:19:12;10.50;1.00
84335;DHT22;74512;51.190;3.198;2023-12-20T07:21:38;10.30;1.00
84335;DHT22;74512;51.190;3.198;2023-12-20T07:24:04;10.40;1.00
84335;DHT22;74512;51.190;3.198;2023-12-20T07:26:30;10.30;1.00
84335;DHT22;74512;51.190;3.198;2023-12-20T07:28:55;10.40;1.00
84335;DHT22;74512;51.190;3.198;2023-12-20T07:31:21;10.50;1.00
84335;DHT22;74512;51.190;3.198;2023-12-20T07:33:47;10.50;1.00
84335;DHT22;74512;51.190;3.198;2023-12-20T07:36:13;10.60;1.00
84335;DHT22;74512;51.190;3.198;2023-12-20T07:38:38;10.50;1.00
84335;DHT22;74512;51.190;3.198;2023-12-20T07:41:04;10.70;1.00
84335;DHT22;74512;51.190;3.198;2023-12-20T07:43:30;10.70;1.00
84335;DHT22;74512;51.190;3.198;2023-12-20T07:45:56;10.80;1.00
84335;DHT22;74512;51.190;3.198;2023-12-20T07:48:21;10.70;1.00
84335;DHT22;74512;51.190;3.198;2023-12-20T07:50:47;10.70;1.00
84335;DHT22;74512;51.190;3.198;2023-12-20T07:53:13;10.80;1.00
84335;DHT22;74512;51.190;3.198;2023-12-20T07:55:39;10.40;1.00
84335;DHT22;74512;51.190;3.198;2023-12-20T07:58:04;10.60;1.00
84335;DHT22;74512;51.190;3.198;2023-12-20T08:00:30;10.50;1.00
84335;DHT22;74512;51.190;3.198;2023-12-20T08:02:56;10.50;1.00
84335;DHT22;74512;51.190;3.198;2023-12-20T08:05:22;10.50;1.00
84335;DHT22;74512;51.190;3.198;2023-12-20T08:07:47;10.40;1.00
84335;DHT22;74512;51.190;3.198;2023-12-20T08:10:13;10.40;1.00
84335;DHT22;74512;51.190;3.198;2023-12-20T08:12:39;10.30;1.00
84335;DHT22;74512;51.190;3.198;2023-12-20T08:15:05;10.30;1.00
84335;DHT22;74512;51.190;3.198;2023-12-20T08:17:31;10.20;1.00
84335;DHT22;74512;51.190;3.198;2023-12-20T08:19:57;10.30;1.00
84335;DHT22;74512;51.190;3.198;2023-12-20T08:22:23;10.30;1.00
84335;DHT22;74512;51.190;3.198;2023-12-20T08:24:48;10.30;1.00
84335;DHT22;74512;51.190;3.198;2023-12-20T08:27:14;10.40;1.00
84335;DHT22;74512;51.190;3.198;2023-12-20T08:29:40;10.40;1.00
84335;DHT22;74512;51.190;3.198;2023-12-20T08:32:05;10.50;1.00
84335;DHT22;74512;51.190;3.198;2023-12-20T08:34:31;10.60;1.00
84335;DHT22;74512;51.190;3.198;2023-12-20T08:36:57;10.50;1.00
84335;DHT22;74512;51.190;3.198;2023-12-20T08:39:22;10.80;1.00
84335;DHT22;74512;51.190;3.198;2023-12-20T08:41:48;10.80;1.00
84335;DHT22;74512;51.190;3.198;2023-12-20T08:44:14;10.90;1.00
84335;DHT22;74512;51.190;3.198;2023-12-20T08:46:39;10.80;1.00
84335;DHT22;74512;51.190;3.198;2023-12-20T08:49:05;10.90;1.00
84335;DHT22;74512;51.190;3.198;2023-12-20T08:51:31;11.10;1.00
84335;DHT22;74512;51.190;3.198;2023-12-20T08:53:56;11.10;1.00
84335;DHT22;74512;51.190;3.198;2023-12-20T08:56:22;11.20;1.00
84335;DHT22;74512;51.190;3.198;2023-12-20T08:58:48;11.40;1.00
84335;DHT22;74512;51.190;3.198;2023-12-20T09:01:14;11.40;1.00
84335;DHT22;74512;51.190;3.198;2023-12-20T09:03:40;11.30;1.00
84335;DHT22;74512;51.190;3.198;2023-12-20T09:06:06;11.30;1.00
84335;DHT22;74512;51.190;3.198;2023-12-20T09:08:32;11.40;1.00
84335;DHT22;74512;51.190;3.198;2023-12-20T09:10:58;11.10;1.00
84335;DHT22;74512;51.190;3.198;2023-12-20T09:13:24;11.20;1.00
84335;DHT22;74512;51.190;3.198;2023-12-20T09:15:55;11.20;1.00
84335;DHT22;74512;51.190;3.198;2023-12-20T09:18:21;11.40;1.00
84335;DHT22;74512;51.190;3.198;2023-12-20T09:20:46;11.20;1.00
84335;DHT22;74512;51.190;3.198;2023-12-20T09:23:12;11.30;1.00
84335;DHT22;74512;51.190;3.198;2023-12-20T09:25:38;11.40;1.00
84335;DHT22;74512;51.190;3.198;2023-12-20T09:28:04;11.40;1.00
84335;DHT22;74512;51.190;3.198;2023-12-20T09:30:29;11.50;1.00
84335;DHT22;74512;51.190;3.198;2023-12-20T09:32:55;11.50;1.00
84335;DHT22;74512;51.190;3.198;2023-12-20T09:35:21;11.50;1.00
84335;DHT22;74512;51.190;3.198;2023-12-20T09:37:47;11.50;1.00
84335;DHT22;74512;51.190;3.198;2023-12-20T09:40:18;11.60;1.00
84335;DHT22;74512;51.190;3.198;2023-12-20T09:42:54;11.50;1.00
84335;DHT22;74512;51.190;3.198;2023-12-20T09:45:21;11.60;1.00
84335;DHT22;74512;51.190;3.198;2023-12-20T09:47:52;11.50;1.00
84335;DHT22;74512;51.190;3.198;2023-12-20T09:50:19;11.30;1.00
84335;DHT22;74512;51.190;3.198;2023-12-20T09:52:48;11.30;1.00
84335;DHT22;74512;51.190;3.198;2023-12-20T09:55:15;11.30;1.00
84335;DHT22;74512;51.190;3.198;2023-12-20T09:57:42;11.30;1.00
84335;DHT22;74512;51.190;3.198;2023-12-20T10:00:08;11.20;1.00
84335;DHT22;74512;51.190;3.198;2023-12-20T10:02:35;11.10;1.00
84335;DHT22;74512;51.190;3.198;2023-12-20T10:05:06;11.20;1.00
84335;DHT22;74512;51.190;3.198;2023-12-20T10:07:35;11.10;1.00
84335;DHT22;74512;51.190;3.198;2023-12-20T10:10:02;10.90;1.00
84335;DHT22;74512;51.190;3.198;2023-12-20T10:12:27;10.70;1.00
84335;DHT22;74512;51.190;3.198;2023-12-20T10:14:53;10.70;1.00
84335;DHT22;74512;51.190;3.198;2023-12-20T10:17:19;10.70;1.00
84335;DHT22;74512;51.190;3.198;2023-12-20T10:19:46;10.70;1.00
84335;DHT22;74512;51.190;3.198;2023-12-20T10:22:12;10.80;1.00
84335;DHT22;74512;51.190;3.198;2023-12-20T10:24:38;10.90;1.00
84335;DHT22;74512;51.190;3.198;2023-12-20T10:27:06;10.80;1.00
84335;DHT22;74512;51.190;3.198;2023-12-20T10:29:38;11.00;1.00
84335;DHT22;74512;51.190;3.198;2023-12-20T10:32:23;11.10;1.00
84335;DHT22;74512;51.190;3.198;2023-12-20T10:34:55;11.10;1.00
84335;DHT22;74512;51.190;3.198;2023-12-20T10:37:21;11.30;1.00
84335;DHT22;74512;51.190;3.198;2023-12-20T10:39:52;11.20;1.00
84335;DHT22;74512;51.190;3.198;2023-12-20T10:42:22;11.30;1.00
84335;DHT22;74512;51.190;3.198;2023-12-20T10:44:49;11.40;1.00
84335;DHT22;74512;51.190;3.198;2023-12-20T10:47:15;11.40;1.00
84335;DHT22;74512;51.190;3.198;2023-12-20T10:49:41;11.40;1.00
84335;DHT22;74512;51.190;3.198;2023-12-20T10:52:08;11.40;1.00
84335;DHT22;74512;51.190;3.198;2023-12-20T10:54:34;11.30;1.00
84335;DHT22;74512;51.190;3.198;2023-12-20T10:57:00;11.30;1.00
84335;DHT22;74512;51.190;3.198;2023-12-20T10:59:29;11.30;1.00
84335;DHT22;74512;51.190;3.198;2023-12-20T11:01:58;11.20;1.00
84335;DHT22;74512;51.190;3.198;2023-12-20T11:04:45;11.30;1.00
84335;DHT22;74512;51.190;3.198;2023-12-20T11:15:18;11.40;1.00
84335;DHT22;74512;51.190;3.198;2023-12-20T11:17:45;11.50;1.00
84335;DHT22;74512;51.190;3.198;2023-12-20T11:20:14;11.50;1.00
84335;DHT22;74512;51.190;3.198;2023-12-20T11:22:52;11.50;1.00
84335;DHT22;74512;51.190;3.198;2023-12-20T11:25:18;11.60;1.00
84335;DHT22;74512;51.190;3.198;2023-12-20T11:27:44;11.40;1.00
84335;DHT22;74512;51.190;3.198;2023-12-20T11:30:47;11.50;1.00
84335;DHT22;74512;51.190;3.198;2023-12-20T11:33:14;11.40;1.00
84335;DHT22;74512;51.190;3.198;2023-12-20T11:35:40;11.40;1.00
84335;DHT22;74512;51.190;3.198;2023-12-20T11:38:10;11.50;1.00
84335;DHT22;74512;51.190;3.198;2023-12-20T11:40:36;11.40;1.00
84335;DHT22;74512;51.190;3.198;2023-12-20T11:43:03;11.40;1.00
84335;DHT22;74512;51.190;3.198;2023-12-20T11:45:30;11.40;1.00
84335;DHT22;74512;51.190;3.198;2023-12-20T11:47:56;11.40;1.00
84335;DHT22;74512;51.190;3.198;2023-12-20T11:50:23;11.50;1.00
84335;DHT22;74512;51.190;3.198;2023-12-20T11:52:50;11.50;1.00
84335;DHT22;74512;51.190;3.198;2023-12-20T11:55:17;11.50;1.00
84335;DHT22;74512;51.190;3.198;2023-12-20T11:57:43;11.30;1.00
84335;DHT22;74512;51.190;3.198;2023-12-20T12:00:09;11.20;1.00
84335;DHT22;74512;51.190;3.198;2023-12-20T12:02:35;11.20;1.00
84335;DHT22;74512;51.190;3.198;2023-12-20T12:05:01;11.20;1.00
84335;DHT22;74512;51.190;3.198;2023-12-20T12:07:27;11.20;1.00
84335;DHT22;74512;51.190;3.198;2023-12-20T12:09:53;11.30;1.00
84335;DHT22;74512;51.190;3.198;2023-12-20T12:12:19;11.40;1.00
84335;DHT22;74512;51.190;3.198;2023-12-20T12:14:45;11.30;1.00
84335;DHT22;74512;51.190;3.198;2023-12-20T12:17:12;11.40;1.00
84335;DHT22;74512;51.190;3.198;2023-12-20T12:19:41;11.40;1.00
84335;DHT22;74512;51.190;3.198;2023-12-20T12:22:08;11.40;1.00
84335;DHT22;74512;51.190;3.198;2023-12-20T12:24:38;11.40;1.00
84335;DHT22;74512;51.190;3.198;2023-12-20T12:27:06;11.60;1.00
84335;DHT22;74512;51.190;3.198;2023-12-20T12:29:32;11.50;1.00
84335;DHT22;74512;51.190;3.198;2023-12-20T12:31:59;11.60;1.00
84335;DHT22;74512;51.190;3.198;2023-12-20T12:34:27;11.60;1.00
84335;DHT22;74512;51.190;3.198;2023-12-20T12:36:53;11.80;1.00
84335;DHT22;74512;51.190;3.198;2023-12-20T12:39:19;11.90;1.00
84335;DHT22;74512;51.190;3.198;2023-12-20T12:41:45;11.70;1.00
84335;DHT22;74512;51.190;3.198;2023-12-20T12:44:11;11.60;1.00
84335;DHT22;74512;51.190;3.198;2023-12-20T12:46:36;11.60;1.00
84335;DHT22;74512;51.190;3.198;2023-12-20T12:49:02;11.60;1.00
84335;DHT22;74512;51.190;3.198;2023-12-20T12:51:28;11.60;1.00
84335;DHT22;74512;51.190;3.198;2023-12-20T12:53:53;11.80;1.00
84335;DHT22;74512;51.190;3.198;2023-12-20T12:56:19;11.50;1.00
84335;DHT22;74512;51.190;3.198;2023-12-20T12:58:45;11.40;1.00
84335;DHT22;74512;51.190;3.198;2023-12-20T13:01:11;11.30;1.00
84335;DHT22;74512;51.190;3.198;2023-12-20T13:03:37;11.40;1.00
84335;DHT22;74512;51.190;3.198;2023-12-20T13:06:03;11.50;1.00
84335;DHT22;74512;51.190;3.198;2023-12-20T13:08:30;11.40;1.00
84335;DHT22;74512;51.190;3.198;2023-12-20T13:10:55;11.30;1.00
84335;DHT22;74512;51.190;3.198;2023-12-20T13:13:23;11.50;1.00
84335;DHT22;74512;51.190;3.198;2023-12-20T13:15:49;11.50;1.00
84335;DHT22;74512;51.190;3.198;2023-12-20T13:18:18;11.60;1.00
84335;DHT22;74512;51.190;3.198;2023-12-20T13:20:44;11.70;1.00
84335;DHT22;74512;51.190;3.198;2023-12-20T13:23:10;11.60;1.00
84335;DHT22;74512;51.190;3.198;2023-12-20T13:25:36;11.70;1.00
84335;DHT22;74512;51.190;3.198;2023-12-20T13:28:01;11.70;1.00
84335;DHT22;74512;51.190;3.198;2023-12-20T13:30:29;11.80;1.00
84335;DHT22;74512;51.190;3.198;2023-12-20T13:32:54;11.90;1.00
84335;DHT22;74512;51.190;3.198;2023-12-20T13:35:20;11.80;1.00
84335;DHT22;74512;51.190;3.198;2023-12-20T13:37:46;11.70;1.00
84335;DHT22;74512;51.190;3.198;2023-12-20T13:40:12;11.80;1.00
84335;DHT22;74512;51.190;3.198;2023-12-20T13:42:41;11.70;1.00
84335;DHT22;74512;51.190;3.198;2023-12-20T13:45:07;11.40;1.00
84335;DHT22;74512;51.190;3.198;2023-12-20T13:47:33;11.20;1.00
84335;DHT22;74512;51.190;3.198;2023-12-20T13:49:59;10.90;1.00
84335;DHT22;74512;51.190;3.198;2023-12-20T13:52:25;10.90;1.00
84335;DHT22;74512;51.190;3.198;2023-12-20T13:54:50;10.80;1.00
84335;DHT22;74512;51.190;3.198;2023-12-20T13:57:16;10.90;1.00
84335;DHT22;74512;51.190;3.198;2023-12-20T13:59:42;10.80;1.00
84335;DHT22;74512;51.190;3.198;2023-12-20T14:02:07;10.80;1.00
84335;DHT22;74512;51.190;3.198;2023-12-20T14:04:33;10.80;1.00
84335;DHT22;74512;51.190;3.198;2023-12-20T14:06:59;10.80;1.00
84335;DHT22;74512;51.190;3.198;2023-12-20T14:09:26;10.70;1.00
84335;DHT22;74512;51.190;3.198;2023-12-20T14:11:51;10.60;1.00
84335;DHT22;74512;51.190;3.198;2023-12-20T14:14:17;10.70;1.00
84335;DHT22;74512;51.190;3.198;2023-12-20T14:16:43;10.70;1.00
84335;DHT22;74512;51.190;3.198;2023-12-20T14:19:11;10.70;1.00
84335;DHT22;74512;51.190;3.198;2023-12-20T14:21:38;11.00;1.00
84335;DHT22;74512;51.190;3.198;2023-12-20T14:24:04;11.10;1.00
84335;DHT22;74512;51.190;3.198;2023-12-20T14:26:30;11.40;1.00
84335;DHT22;74512;51.190;3.198;2023-12-20T14:28:56;11.80;1.00
84335;DHT22;74512;51.190;3.198;2023-12-20T14:31:22;11.90;1.00
84335;DHT22;74512;51.190;3.198;2023-12-20T14:33:50;11.90;1.00
84335;DHT22;74512;51.190;3.198;2023-12-20T14:36:16;11.90;1.00
84335;DHT22;74512;51.190;3.198;2023-12-20T14:38:43;11.90;1.00
84335;DHT22;74512;51.190;3.198;2023-12-20T14:41:09;12.00;1.00
84335;DHT22;74512;51.190;3.198;2023-12-20T14:43:35;12.00;1.00
84335;DHT22;74512;51.190;3.198;2023-12-20T14:46:00;12.10;1.00
84335;DHT22;74512;51.190;3.198;2023-12-20T14:48:26;12.10;1.00
84335;DHT22;74512;51.190;3.198;2023-12-20T14:50:55;12.10;1.00
84335;DHT22;74512;51.190;3.198;2023-12-20T14:53:20;12.10;1.00
84335;DHT22;74512;51.190;3.198;2023-12-20T14:55:46;12.20;1.00
84335;DHT22;74512;51.190;3.198;2023-12-20T14:58:12;12.20;1.00
84335;DHT22;74512;51.190;3.198;2023-12-20T15:00:38;12.20;1.00
84335;DHT22;74512;51.190;3.198;2023-12-20T15:03:04;12.20;1.00
84335;DHT22;74512;51.190;3.198;2023-12-20T15:05:31;12.20;1.00
84335;DHT22;74512;51.190;3.198;2023-12-20T15:07:57;12.00;1.00
84335;DHT22;74512;51.190;3.198;2023-12-20T15:10:22;12.00;1.00
84335;DHT22;74512;51.190;3.198;2023-12-20T15:12:48;11.90;1.00
84335;DHT22;74512;51.190;3.198;2023-12-20T15:15:14;11.80;1.00
84335;DHT22;74512;51.190;3.198;2023-12-20T15:17:40;11.80;1.00
84335;DHT22;74512;51.190;3.198;2023-12-20T15:20:06;11.60;1.00
84335;DHT22;74512;51.190;3.198;2023-12-20T15:22:31;11.80;1.00
84335;DHT22;74512;51.190;3.198;2023-12-20T15:24:59;11.70;1.00
84335;DHT22;74512;51.190;3.198;2023-12-20T15:27:25;11.70;1.00
84335;DHT22;74512;51.190;3.198;2023-12-20T15:29:50;11.70;1.00
84335;DHT22;74512;51.190;3.198;2023-12-20T15:32:17;11.80;1.00
84335;DHT22;74512;51.190;3.198;2023-12-20T15:34:44;11.70;1.00
84335;DHT22;74512;51.190;3.198;2023-12-20T15:37:10;11.80;1.00
84335;DHT22;74512;51.190;3.198;2023-12-20T15:39:36;11.70;1.00
84335;DHT22;74512;51.190;3.198;2023-12-20T15:42:02;11.60;1.00
84335;DHT22;74512;51.190;3.198;2023-12-20T15:44:28;11.50;1.00
84335;DHT22;74512;51.190;3.198;2023-12-20T15:46:53;11.50;1.00
84335;DHT22;74512;51.190;3.198;2023-12-20T15:49:19;11.70;1.00